createdAt,value
2023-02-02T00:01:25.533Z,98162.66
2023-02-02T00:03:55.867Z,98148.38
2023-02-02T00:06:26.781Z,98155.81
2023-02-02T00:08:57.155Z,98156.63
2023-02-02T00:11:26.312Z,98145.63
2023-02-02T00:13:56.190Z,98155.00
2023-02-02T00:16:43.648Z,98143.16
2023-02-02T00:19:18.514Z,98135.19
2023-02-02T00:21:47.058Z,98142.31
2023-02-02T00:24:17.902Z,98142.31
2023-02-02T00:26:48.396Z,98140.69
2023-02-02T00:29:22.364Z,98135.19
2023-02-02T00:31:51.844Z,98135.19
2023-02-02T00:34:20.436Z,98139.88
2023-02-02T00:36:49.903Z,98139.03
2023-02-02T00:39:20.396Z,98139.03
2023-02-02T00:41:49.281Z,98131.59
2023-02-02T00:44:36.462Z,98144.53
2023-02-02T00:47:05.270Z,98140.16
2023-02-02T00:49:33.976Z,98132.72
2023-02-02T00:52:02.659Z,98142.09
2023-02-02T00:54:31.449Z,98146.78
2023-02-02T00:56:59.919Z,98149.53
2023-02-02T00:59:29.746Z,98157.78
2023-02-02T01:01:58.572Z,98149.81
2023-02-02T01:04:27.094Z,98156.97
2023-02-02T01:06:55.546Z,98149.00
2023-02-02T01:09:24.066Z,98150.63
2023-02-02T01:11:52.607Z,98138.00
2023-02-02T01:14:21.141Z,98139.63
2023-02-02T01:16:50.954Z,98134.94
2023-02-02T01:19:19.912Z,98136.88
2023-02-02T01:21:48.375Z,98134.13
2023-02-02T01:24:16.884Z,98157.78
2023-02-02T01:26:45.328Z,98141.28
2023-02-02T01:29:13.861Z,98144.31
2023-02-02T01:31:42.419Z,98155.31
2023-02-02T01:34:13.172Z,98144.31
2023-02-02T01:36:41.801Z,98146.78
2023-02-02T01:39:10.324Z,98156.13
2023-02-02T01:41:42.195Z,98137.19
2023-02-02T01:44:44.082Z,98149.00
2023-02-02T01:47:12.768Z,98149.00
2023-02-02T01:49:43.230Z,98138.81
2023-02-02T01:52:13.979Z,98149.00
2023-02-02T01:54:45.956Z,98150.94
2023-02-02T01:57:17.784Z,98153.69
2023-02-02T01:59:48.443Z,98143.50
2023-02-02T02:02:17.482Z,98148.19
2023-02-02T02:04:48.516Z,98144.63
2023-02-02T02:07:17.108Z,98129.22
2023-02-02T02:09:45.568Z,98147.38
2023-02-02T02:12:15.622Z,98141.03
2023-02-02T02:15:04.110Z,98144.09
2023-02-02T02:17:49.738Z,98151.22
2023-02-02T02:21:01.699Z,98154.78
2023-02-02T02:24:21.560Z,98152.03
2023-02-02T02:27:03.939Z,98149.59
2023-02-02T02:30:04.449Z,98156.72
2023-02-02T02:32:45.644Z,98150.41
2023-02-02T02:35:24.523Z,98141.34
2023-02-02T02:38:00.594Z,98152.63
2023-02-02T02:40:36.029Z,98145.19
2023-02-02T02:43:08.938Z,98153.44
2023-02-02T02:45:38.747Z,98151.53
2023-02-02T02:48:10.324Z,98147.13
2023-02-02T02:50:39.827Z,98149.88
2023-02-02T02:53:14.206Z,98146.31
2023-02-02T02:55:49.624Z,98146.31
2023-02-02T02:58:24.525Z,98144.69
2023-02-02T03:01:03.241Z,98146.31
2023-02-02T03:03:57.354Z,98154.88
2023-02-02T03:06:33.919Z,98147.44
2023-02-02T03:09:07.317Z,98154.03
2023-02-02T03:11:36.403Z,98148.53
2023-02-02T03:14:09.529Z,98148.53
2023-02-02T03:16:38.315Z,98146.91
2023-02-02T03:19:08.567Z,98146.91
2023-02-02T03:21:36.941Z,98147.72
2023-02-02T03:24:05.939Z,98152.41
2023-02-02T03:26:35.080Z,98150.47
2023-02-02T03:29:04.117Z,98157.91
2023-02-02T03:31:32.690Z,98153.22
2023-02-02T03:34:01.326Z,98159.03
2023-02-02T03:36:31.145Z,98156.28
2023-02-02T03:38:59.569Z,98161.78
2023-02-02T03:41:28.002Z,98160.66
2023-02-02T03:43:56.391Z,98161.78
2023-02-02T03:46:24.800Z,98161.78
2023-02-02T03:48:53.269Z,98166.47
2023-02-02T03:51:21.743Z,98166.47
2023-02-02T03:53:51.503Z,98166.47
2023-02-02T03:56:20.315Z,98179.38
2023-02-02T03:58:48.865Z,98173.88
2023-02-02T04:01:17.321Z,98182.13
2023-02-02T04:03:46.286Z,98186.00
2023-02-02T04:06:14.794Z,98175.81
2023-02-02T04:08:43.201Z,98175.00
2023-02-02T04:11:13.109Z,98185.19
2023-02-02T04:13:43.383Z,98185.19
2023-02-02T04:16:13.031Z,98173.38
2023-02-02T04:18:42.005Z,98182.44
2023-02-02T04:21:10.421Z,98180.78
2023-02-02T04:23:38.988Z,98180.50
2023-02-02T04:26:07.525Z,98175.28
2023-02-02T04:28:37.471Z,98178.88
2023-02-02T04:31:06.028Z,98178.88
2023-02-02T04:33:36.254Z,98185.19
2023-02-02T04:36:05.475Z,98189.88
2023-02-02T04:38:33.959Z,98196.47
2023-02-02T04:41:07.928Z,98189.03
2023-02-02T04:43:38.808Z,98200.88
2023-02-02T04:46:07.680Z,98204.72
2023-02-02T04:48:36.262Z,98218.47
2023-02-02T04:51:07.014Z,98199.22
2023-02-02T04:53:35.526Z,98204.72
2023-02-02T04:56:09.574Z,98214.91
2023-02-02T04:58:39.772Z,98221.22
2023-02-02T05:01:13.045Z,98219.59
2023-02-02T05:03:41.656Z,98210.53
2023-02-02T05:06:10.072Z,98210.81
2023-02-02T05:08:38.844Z,98225.38
2023-02-02T05:11:08.867Z,98221.81
2023-02-02T05:13:38.883Z,98226.50
2023-02-02T05:16:08.551Z,98228.44
2023-02-02T05:18:37.060Z,98233.94
2023-02-02T05:21:06.042Z,98236.69
2023-02-02T05:23:34.619Z,98235.84
2023-02-02T05:26:03.176Z,98235.03
2023-02-02T05:28:31.960Z,98240.53
2023-02-02T05:31:01.932Z,98238.91
2023-02-02T05:33:33.349Z,98242.75
2023-02-02T05:36:01.825Z,98241.94
2023-02-02T05:38:30.259Z,98238.38
2023-02-02T05:40:58.740Z,98240.31
2023-02-02T05:43:27.789Z,98242.25
2023-02-02T05:45:56.347Z,98250.50
2023-02-02T05:48:26.232Z,98256.81
2023-02-02T05:51:00.828Z,98246.63
2023-02-02T05:53:30.578Z,98250.50
2023-02-02T05:55:59.674Z,98260.66
2023-02-02T05:58:28.924Z,98263.13
2023-02-02T06:00:57.395Z,98265.88
2023-02-02T06:03:27.438Z,98261.50
2023-02-02T06:05:56.179Z,98263.94
2023-02-02T06:08:24.717Z,98255.69
2023-02-02T06:10:53.135Z,98263.13
2023-02-02T06:13:21.939Z,98268.63
2023-02-02T06:15:50.565Z,98268.63
2023-02-02T06:18:19.088Z,98267.50
2023-02-02T06:20:48.878Z,98266.69
2023-02-02T06:23:17.321Z,98275.75
2023-02-02T06:25:45.776Z,98274.94
2023-02-02T06:28:14.308Z,98274.13
2023-02-02T06:30:44.192Z,98289.00
2023-02-02T06:33:13.294Z,98278.00
2023-02-02T06:35:41.766Z,98269.75
2023-02-02T06:38:11.949Z,98286.25
2023-02-02T06:40:40.414Z,98289.00
2023-02-02T06:43:11.442Z,98284.59
2023-02-02T06:45:40.231Z,98295.59
2023-02-02T06:48:10.868Z,98289.00
2023-02-02T06:50:39.547Z,98289.81
2023-02-02T06:53:08.074Z,98286.25
2023-02-02T06:55:37.871Z,98296.13
2023-02-02T06:58:06.315Z,98300.81
2023-02-02T07:00:36.978Z,98299.50
2023-02-02T07:03:05.857Z,98308.34
2023-02-02T07:05:34.431Z,98300.66
2023-02-02T07:08:03.210Z,98310.03
2023-02-02T07:11:13.380Z,98301.25
2023-02-02T07:13:21.546Z,98296.81
2023-02-02T07:15:50.034Z,98296.03
2023-02-02T07:18:18.603Z,98298.53
2023-02-02T07:20:47.059Z,98286.69
2023-02-02T07:23:15.524Z,98294.25
2023-02-02T07:25:44.212Z,98300.72
2023-02-02T07:28:12.777Z,98292.63
2023-02-02T07:30:42.733Z,98302.69
2023-02-02T07:33:11.297Z,98306.41
2023-02-02T07:35:39.893Z,98313.78
2023-02-02T07:38:08.405Z,98313.53
2023-02-02T07:40:36.934Z,98311.34
2023-02-02T07:43:05.383Z,98311.69
2023-02-02T07:45:33.910Z,98319.22
2023-02-02T07:48:03.758Z,98314.38
2023-02-02T07:50:32.754Z,98314.44
2023-02-02T07:53:01.568Z,98317.84
2023-02-02T07:55:30.370Z,98317.09
2023-02-02T07:57:59.189Z,98331.22
2023-02-02T08:00:29.573Z,98327.41
2023-02-02T08:02:59.324Z,98321.97
2023-02-02T08:05:29.769Z,98315.41
2023-02-02T08:08:00.129Z,98302.53
2023-02-02T08:10:29.161Z,98300.06
2023-02-02T08:12:59.075Z,98310.53
2023-02-02T08:15:28.472Z,98301.22
2023-02-02T08:17:59.219Z,98290.81
2023-02-02T08:20:29.930Z,98285.84
2023-02-02T08:22:58.622Z,98281.91
2023-02-02T08:25:28.400Z,98302.75
2023-02-02T08:27:58.683Z,98302.69
2023-02-02T08:30:28.410Z,98314.22
2023-02-02T08:32:56.988Z,98305.44
2023-02-02T08:35:25.825Z,98306.63
2023-02-02T08:37:55.783Z,98319.09
2023-02-02T08:40:25.254Z,98324.13
2023-02-02T08:42:55.449Z,98319.50
2023-02-02T08:46:13.690Z,98331.09
2023-02-02T08:48:12.932Z,98342.09
2023-02-02T08:50:41.527Z,98330.50
2023-02-02T08:53:11.294Z,98331.34
2023-02-02T08:55:39.715Z,98346.44
2023-02-02T08:58:08.142Z,98350.88
2023-02-02T09:00:37.111Z,98343.84
2023-02-02T09:03:05.604Z,98351.22
2023-02-02T09:05:34.077Z,98354.13
2023-02-02T09:08:02.626Z,98341.00
2023-02-02T09:10:32.498Z,98338.94
2023-02-02T09:13:01.224Z,98347.72
2023-02-02T09:15:30.247Z,98352.63
2023-02-02T09:17:58.784Z,98344.25
2023-02-02T09:20:27.240Z,98341.41
2023-02-02T09:22:57.224Z,98340.81
2023-02-02T09:25:27.512Z,98358.19
2023-02-02T09:27:57.427Z,98356.53
2023-02-02T09:30:25.974Z,98359.38
2023-02-02T09:32:54.425Z,98365.50
2023-02-02T09:35:23.237Z,98362.53
2023-02-02T09:37:52.078Z,98357.09
2023-02-02T09:40:21.270Z,98366.50
2023-02-02T09:43:02.852Z,98367.09
2023-02-02T09:45:40.541Z,98370.44
2023-02-02T09:48:21.827Z,98365.22
2023-02-02T09:50:55.832Z,98375.22
2023-02-02T09:53:29.141Z,98361.72
2023-02-02T09:56:01.555Z,98373.03
2023-02-02T09:58:35.299Z,98370.06
2023-02-02T10:01:09.319Z,98384.44
2023-02-02T10:03:40.655Z,98376.75
2023-02-02T10:06:21.111Z,98391.13
2023-02-02T10:08:53.806Z,98391.19
2023-02-02T10:11:31.976Z,98391.59
2023-02-02T10:14:06.715Z,98398.34
2023-02-02T10:16:37.148Z,98395.72
2023-02-02T10:19:10.727Z,98395.25
2023-02-02T10:21:44.955Z,98400.56
2023-02-02T10:24:20.909Z,98396.75
2023-02-02T10:26:51.647Z,98400.09
2023-02-02T10:29:47.988Z,98402.66
2023-02-02T10:32:23.671Z,98396.91
2023-02-02T10:35:13.943Z,98398.91
2023-02-02T10:37:51.287Z,98407.97
2023-02-02T10:40:33.409Z,98391.75
2023-02-02T10:43:40.489Z,98397.84
2023-02-02T10:46:15.400Z,98413.53
2023-02-02T10:48:47.387Z,98417.09
2023-02-02T10:51:21.732Z,98418.75
2023-02-02T10:53:52.925Z,98415.19
2023-02-02T10:56:27.695Z,98419.56
2023-02-02T10:59:02.453Z,98413.53
2023-02-02T11:01:32.378Z,98410.25
2023-02-02T11:04:18.442Z,98409.44
2023-02-02T11:06:52.679Z,98409.44
2023-02-02T11:09:23.943Z,98412.47
2023-02-02T11:11:56.784Z,98416.34
2023-02-02T11:14:45.076Z,98430.66
2023-02-02T11:17:21.363Z,98417.47
2023-02-02T11:19:50.838Z,98423.00
2023-02-02T11:22:29.004Z,98419.19
2023-02-02T11:24:59.332Z,98423.03
2023-02-02T11:27:30.379Z,98417.06
2023-02-02T11:30:00.274Z,98425.59
2023-02-02T11:32:33.493Z,98425.69
2023-02-02T11:35:16.155Z,98430.72
2023-02-02T11:38:01.755Z,98429.91
2023-02-02T11:40:33.724Z,98432.06
2023-02-02T11:43:06.106Z,98424.91
2023-02-02T11:45:40.065Z,98419.09
2023-02-02T11:48:17.006Z,98422.69
2023-02-02T11:50:51.170Z,98420.47
2023-02-02T11:53:24.310Z,98412.22
2023-02-02T11:55:54.262Z,98405.00
2023-02-02T11:58:27.572Z,98406.53
2023-02-02T12:00:59.330Z,98411.88
2023-02-02T12:03:32.891Z,98416.91
2023-02-02T12:06:03.028Z,98407.66
2023-02-02T12:08:31.961Z,98406.72
2023-02-02T12:11:03.048Z,98406.66
2023-02-02T12:13:53.173Z,98410.75
2023-02-02T12:16:53.458Z,98407.72
2023-02-02T12:19:38.206Z,98400.81
2023-02-02T12:22:20.975Z,98409.06
2023-02-02T12:24:57.931Z,98399.16
2023-02-02T12:27:39.833Z,98395.28
2023-02-02T12:30:19.736Z,98392.25
2023-02-02T12:33:02.840Z,98388.16
2023-02-02T12:35:49.532Z,98394.78
2023-02-02T12:38:25.933Z,98395.88
2023-02-02T12:41:13.723Z,98398.94
2023-02-02T12:43:45.080Z,98398.13
2023-02-02T12:46:22.638Z,98394.84
2023-02-02T12:49:15.104Z,98395.13
2023-02-02T12:51:57.939Z,98398.16
2023-02-02T12:54:53.127Z,98406.50
2023-02-02T12:57:35.666Z,98398.81
2023-02-02T13:00:27.673Z,98400.22
2023-02-02T13:03:10.133Z,98388.38
2023-02-02T13:05:54.601Z,98401.88
2023-02-02T13:08:29.191Z,98407.38
2023-02-02T13:11:04.983Z,98409.81
2023-02-02T13:13:39.138Z,98396.59
2023-02-02T13:16:10.172Z,98401.28
2023-02-02T13:18:45.376Z,98416.69
2023-02-02T13:21:17.067Z,98410.88
2023-02-02T13:23:50.913Z,98410.34
2023-02-02T13:26:22.322Z,98413.09
2023-02-02T13:28:54.655Z,98415.34
2023-02-02T13:31:31.264Z,98415.34
2023-02-02T13:34:06.413Z,98415.91
2023-02-02T13:36:38.902Z,98415.44
2023-02-02T13:39:18.201Z,98417.72
2023-02-02T13:41:47.847Z,98422.75
2023-02-02T13:44:23.021Z,98423.91
2023-02-02T13:46:58.690Z,98432.50
2023-02-02T13:49:30.622Z,98437.75
2023-02-02T13:52:21.324Z,98440.75
2023-02-02T13:55:40.552Z,98438.78
2023-02-02T13:58:38.437Z,98453.56
2023-02-02T14:01:10.313Z,98450.75
2023-02-02T14:03:41.014Z,98461.72
2023-02-02T14:06:16.906Z,98453.41
2023-02-02T14:08:49.127Z,98453.34
2023-02-02T14:11:23.407Z,98451.13
2023-02-02T14:14:13.323Z,98462.69
2023-02-02T14:16:59.708Z,98462.91
2023-02-02T14:19:55.040Z,98467.03
2023-02-02T14:22:44.471Z,98478.03
2023-02-02T14:25:51.630Z,98481.31
2023-02-02T14:28:43.329Z,98481.84
2023-02-02T14:31:29.647Z,98480.75
2023-02-02T14:34:33.616Z,98490.94
2023-02-02T14:37:22.462Z,98492.56
2023-02-02T14:39:59.524Z,98490.13
2023-02-02T14:42:59.545Z,98487.94
2023-02-02T14:45:30.663Z,98486.59
2023-02-02T14:48:02.366Z,98481.38
2023-02-02T14:50:43.731Z,98481.13
2023-02-02T14:53:31.805Z,98483.66
2023-02-02T14:56:03.933Z,98495.25
2023-02-02T14:58:35.132Z,98496.66
2023-02-02T15:01:13.391Z,98497.22
2023-02-02T15:03:53.910Z,98496.69
2023-02-02T15:06:32.124Z,98498.91
2023-02-02T15:09:36.712Z,98497.56
2023-02-02T15:12:35.293Z,98500.88
2023-02-02T15:15:13.278Z,98499.53
2023-02-02T15:17:53.446Z,98504.78
2023-02-02T15:20:25.422Z,98505.91
2023-02-02T15:22:58.509Z,98506.19
2023-02-02T15:25:31.272Z,98515.84
2023-02-02T15:28:05.372Z,98516.13
2023-02-02T15:30:37.914Z,98515.31
2023-02-02T15:33:15.077Z,98514.50
2023-02-02T15:35:45.177Z,98520.28
2023-02-02T15:38:18.821Z,98515.88
2023-02-02T15:40:47.352Z,98530.75
2023-02-02T15:43:17.662Z,98529.13
2023-02-02T15:45:48.863Z,98547.56
2023-02-02T15:48:23.727Z,98548.66
2023-02-02T15:50:55.830Z,98541.53
2023-02-02T15:53:27.289Z,98553.34
2023-02-02T15:55:57.780Z,98555.00
2023-02-02T15:58:30.507Z,98559.38
2023-02-02T16:01:02.116Z,98563.50
2023-02-02T16:03:46.544Z,98573.66
2023-02-02T16:06:18.149Z,98575.53
2023-02-02T16:08:47.255Z,98571.94
2023-02-02T16:11:18.289Z,98578.50
2023-02-02T16:13:59.720Z,98581.78
2023-02-02T16:16:30.100Z,98587.00
2023-02-02T16:19:12.875Z,98585.31
2023-02-02T16:21:47.550Z,98591.91
2023-02-02T16:24:20.222Z,98597.09
2023-02-02T16:26:50.228Z,98599.22
2023-02-02T16:29:19.222Z,98596.41
2023-02-02T16:31:49.353Z,98598.06
2023-02-02T16:34:19.330Z,98612.91
2023-02-02T16:37:08.209Z,98618.94
2023-02-02T16:39:37.290Z,98620.00
2023-02-02T16:42:10.887Z,98617.75
2023-02-02T16:44:42.901Z,98622.38
2023-02-02T16:47:33.667Z,98628.16
2023-02-02T16:50:31.095Z,98632.28
2023-02-02T16:53:04.742Z,98640.25
2023-02-02T16:55:49.316Z,98637.50
2023-02-02T16:58:21.653Z,98641.38
2023-02-02T17:01:14.879Z,98639.16
2023-02-02T17:03:52.022Z,98656.47
2023-02-02T17:06:35.708Z,98659.16
2023-02-02T17:09:17.489Z,98670.19
2023-02-02T17:12:01.144Z,98664.69
2023-02-02T17:14:33.873Z,98674.88
2023-02-02T17:17:06.173Z,98683.69
2023-02-02T17:19:34.916Z,98684.25
2023-02-02T17:22:06.131Z,98684.84
2023-02-02T17:24:35.999Z,98678.78
2023-02-02T17:27:04.603Z,98683.25
2023-02-02T17:29:35.220Z,98678.56
2023-02-02T17:32:03.755Z,98688.22
2023-02-02T17:34:32.165Z,98684.94
2023-02-02T17:37:01.134Z,98685.75
2023-02-02T17:39:29.878Z,98693.19
2023-02-02T17:41:59.981Z,98704.22
2023-02-02T17:44:28.584Z,98708.09
2023-02-02T17:46:57.131Z,98710.84
2023-02-02T17:49:25.620Z,98709.19
2023-02-02T17:51:54.141Z,98715.53
2023-02-02T17:54:22.607Z,98724.09
2023-02-02T17:56:51.086Z,98729.59
2023-02-02T17:59:20.980Z,98727.09
2023-02-02T18:01:49.675Z,98744.44
2023-02-02T18:04:18.857Z,98739.75
2023-02-02T18:06:47.524Z,98753.53
2023-02-02T18:09:15.993Z,98747.19
2023-02-02T18:11:45.483Z,98749.13
2023-02-02T18:14:13.904Z,98742.81
2023-02-02T18:16:43.764Z,98748.03
2023-02-02T18:19:12.292Z,98744.44
2023-02-02T18:21:40.746Z,98743.91
2023-02-02T18:24:09.460Z,98746.38
2023-02-02T18:26:37.932Z,98751.06
2023-02-02T18:29:06.377Z,98742.25
2023-02-02T18:31:34.936Z,98738.69
2023-02-02T18:34:05.061Z,98737.84
2023-02-02T18:36:33.995Z,98748.59
2023-02-02T18:39:02.506Z,98748.59
2023-02-02T18:41:31.183Z,98742.78
2023-02-02T18:43:59.632Z,98738.41
2023-02-02T18:46:28.336Z,98743.38
2023-02-02T18:48:56.821Z,98740.63
2023-02-02T18:51:27.173Z,98740.63
2023-02-02T18:54:00.189Z,98740.63
2023-02-02T18:56:29.995Z,98740.63
2023-02-02T18:58:59.218Z,98744.44
2023-02-02T19:01:27.777Z,98748.88
2023-02-02T19:03:57.717Z,98745.28
2023-02-02T19:06:45.454Z,98740.03
2023-02-02T19:09:17.128Z,98742.25
2023-02-02T19:11:48.012Z,98749.72
2023-02-02T19:14:18.300Z,98750.53
2023-02-02T19:16:49.280Z,98756.03
2023-02-02T19:19:23.966Z,98745.31
2023-02-02T19:21:56.656Z,98749.16
2023-02-02T19:24:27.038Z,98756.63
2023-02-02T19:26:55.971Z,98768.22
2023-02-02T19:29:27.132Z,98757.75
2023-02-02T19:32:02.667Z,98771.53
2023-02-02T19:34:34.677Z,98764.66
2023-02-02T19:37:21.844Z,98765.50
2023-02-02T19:39:50.661Z,98767.13
2023-02-02T19:42:19.391Z,98767.13
2023-02-02T19:44:48.229Z,98774.28
2023-02-02T19:47:25.711Z,98770.72
2023-02-02T19:49:54.427Z,98775.94
2023-02-02T19:52:26.662Z,98765.75
2023-02-02T19:54:55.300Z,98770.97
2023-02-02T19:57:34.123Z,98768.22
2023-02-02T20:00:12.310Z,98764.91
2023-02-02T20:02:55.344Z,98777.59
2023-02-02T20:05:26.245Z,98789.72
2023-02-02T20:08:02.633Z,98786.13
2023-02-02T20:10:39.362Z,98792.47
2023-02-02T20:13:17.550Z,98788.59
2023-02-02T20:15:46.875Z,98779.50
2023-02-02T20:18:20.366Z,98778.41
2023-02-02T20:20:53.286Z,98772.06
2023-02-02T20:23:36.989Z,98772.06
2023-02-02T20:26:15.842Z,98775.94
2023-02-02T20:28:46.187Z,98760.50
2023-02-02T20:31:19.034Z,98765.19
2023-02-02T20:33:49.913Z,98760.81
2023-02-02T20:36:35.713Z,98754.47
2023-02-02T20:39:22.991Z,98762.44
2023-02-02T20:41:52.206Z,98761.63
2023-02-02T20:44:20.898Z,98770.44
2023-02-02T20:46:49.404Z,98769.59
2023-02-02T20:49:17.873Z,98768.78
2023-02-02T20:51:46.343Z,98768.78
2023-02-02T20:54:16.120Z,98767.13
2023-02-02T20:56:44.550Z,98761.63
2023-02-02T20:59:13.100Z,98759.44
2023-02-02T21:01:42.036Z,98758.34
2023-02-02T21:04:10.993Z,98770.16
2023-02-02T21:06:41.365Z,98767.13
2023-02-02T21:09:11.475Z,98766.31
2023-02-02T21:11:41.620Z,98774.28
2023-02-02T21:14:10.696Z,98774.28
2023-02-02T21:16:39.286Z,98781.44
2023-02-02T21:19:07.740Z,98775.41
2023-02-02T21:21:36.906Z,98782.00
2023-02-02T21:24:05.883Z,98778.72
2023-02-02T21:26:34.369Z,98780.94
2023-02-02T21:29:04.379Z,98778.75
2023-02-02T21:31:35.013Z,98776.56
2023-02-02T21:34:03.611Z,98771.09
2023-02-02T21:36:37.088Z,98782.66
2023-02-02T21:39:16.312Z,98783.53
2023-02-02T21:41:44.888Z,98792.63
2023-02-02T21:44:19.587Z,98788.22
2023-02-02T21:46:49.863Z,98800.91
2023-02-02T21:49:23.790Z,98801.47
2023-02-02T21:51:53.309Z,98816.34
2023-02-02T21:54:25.180Z,98820.50
2023-02-02T21:56:54.439Z,98826.28
2023-02-02T21:59:29.591Z,98829.59
2023-02-02T22:01:58.115Z,98836.22
2023-02-02T22:04:28.883Z,98832.91
2023-02-02T22:07:00.927Z,98824.09
2023-02-02T22:09:39.219Z,98830.19
2023-02-02T22:12:20.286Z,98824.94
2023-02-02T22:14:52.556Z,98828.53
2023-02-02T22:17:23.542Z,98833.22
2023-02-02T22:20:01.003Z,98818.91
2023-02-02T22:22:36.319Z,98822.75
2023-02-02T22:25:20.897Z,98819.19
2023-02-02T22:27:51.859Z,98813.13
2023-02-02T22:30:28.729Z,98814.25
2023-02-02T22:32:57.364Z,98816.16
2023-02-02T22:35:25.832Z,98815.34
2023-02-02T22:37:54.209Z,98812.03
2023-02-02T22:40:23.307Z,98817.56
2023-02-02T22:42:52.405Z,98800.22
2023-02-02T22:45:22.560Z,98811.22
2023-02-02T22:47:52.398Z,98802.41
2023-02-02T22:50:22.916Z,98807.94
2023-02-02T22:52:51.797Z,98798.84
2023-02-02T22:55:20.714Z,98809.31
2023-02-02T22:57:49.725Z,98812.88
2023-02-02T23:00:20.606Z,98810.13
2023-02-02T23:02:50.890Z,98807.66
2023-02-02T23:05:21.176Z,98804.09
2023-02-02T23:07:50.561Z,98795.00
2023-02-02T23:10:20.703Z,98804.38
2023-02-02T23:12:49.724Z,98793.34
2023-02-02T23:15:19.230Z,98795.53
2023-02-02T23:17:48.482Z,98802.69
2023-02-02T23:20:18.661Z,98792.78
2023-02-02T23:22:47.721Z,98796.63
2023-02-02T23:25:18.655Z,98786.72
2023-02-02T23:27:47.142Z,98799.38
2023-02-02T23:30:16.193Z,98807.63
2023-02-02T23:32:44.656Z,98812.59
2023-02-02T23:35:13.042Z,98823.59
2023-02-02T23:37:43.015Z,98816.44
2023-02-02T23:40:12.930Z,98821.97
2023-02-02T23:42:41.378Z,98824.72
2023-02-02T23:45:10.785Z,98831.31
2023-02-02T23:47:39.577Z,98824.16
2023-02-02T23:50:09.965Z,98831.59
2023-02-02T23:52:39.288Z,98830.78
2023-02-02T23:55:11.031Z,98835.16
2023-02-02T23:57:39.624Z,98836.28
